logo
Search for airport 
image banner adimage banner adimage banner ad
image banner ad

CBH2 - Helmet

Located in , Canada

ICAO - CBH2, IATA -

Data provided by Airmate  

General information

Coordinates: N59°25'33" W120°47'51"
Elevation is 1930 feet MSL.
Magnetic variation is 18.2111° East
View others Airports in British Columbia

Operational data

Special qualification required
Current time UTC:
Current local time:
Weather at : - ( 0 km )
METAR: ZMCK 162030Z VRB02MPS CAVOK 12/12 Q1013 NOSIG RMK QFE644.6 100
View NOTAMs / SUP AIP / TFR affecting this airport [VIEW]
Communications frequencies: [VIEW]

Runways:

RWY identifierQFULength (ft)Width (ft)SurfaceLDA (ft)
12142°4521100GRAVE4521
30322°4521100GRAVE4521

Airport contact information

Address: Canada

Satellite view of CBH2